sensor_id;sensor_type;location;lat;lon;timestamp;pressure;altitude;pressure_sealevel;temperature;humidity
45523;BME280;31254;51.680;5.394;2023-04-15T00:01:50;100806.97;;;8.60;60.67
45523;BME280;31254;51.680;5.394;2023-04-15T00:04:22;100819.84;;;8.58;60.68
45523;BME280;31254;51.680;5.394;2023-04-15T00:06:53;100819.25;;;8.55;61.11
45523;BME280;31254;51.680;5.394;2023-04-15T00:09:20;100804.34;;;8.49;60.93
45523;BME280;31254;51.680;5.394;2023-04-15T00:11:49;100821.97;;;8.55;60.95
45523;BME280;31254;51.680;5.394;2023-04-15T00:14:19;100822.97;;;8.54;61.17
45523;BME280;31254;51.680;5.394;2023-04-15T00:16:46;100822.38;;;8.50;61.02
45523;BME280;31254;51.680;5.394;2023-04-15T00:19:15;100796.53;;;8.35;60.83
45523;BME280;31254;51.680;5.394;2023-04-15T00:21:42;100797.53;;;8.34;61.20
45523;BME280;31254;51.680;5.394;2023-04-15T00:24:11;100809.00;;;8.37;61.29
45523;BME280;31254;51.680;5.394;2023-04-15T00:26:38;100780.28;;;8.14;61.29
45523;BME280;31254;51.680;5.394;2023-04-15T00:29:05;100797.88;;;8.19;61.71
45523;BME280;31254;51.680;5.394;2023-04-15T00:31:38;100812.81;;;8.25;61.98
45523;BME280;31254;51.680;5.394;2023-04-15T00:34:04;100825.25;;;8.28;61.97
45523;BME280;31254;51.680;5.394;2023-04-15T00:36:31;100816.06;;;8.19;61.82
45523;BME280;31254;51.680;5.394;2023-04-15T00:38:59;100819.50;;;8.21;62.09
45523;BME280;31254;51.680;5.394;2023-04-15T00:41:27;100822.34;;;8.19;61.57
45523;BME280;31254;51.680;5.394;2023-04-15T00:43:56;100779.91;;;7.97;61.99
45523;BME280;31254;51.680;5.394;2023-04-15T00:46:24;100821.03;;;8.14;61.73
45523;BME280;31254;51.680;5.394;2023-04-15T00:48:53;100816.84;;;8.10;62.45
45523;BME280;31254;51.680;5.394;2023-04-15T00:51:20;100810.38;;;8.01;62.28
45523;BME280;31254;51.680;5.394;2023-04-15T00:53:47;100831.91;;;8.14;62.18
45523;BME280;31254;51.680;5.394;2023-04-15T00:56:14;100831.19;;;8.12;62.23
45523;BME280;31254;51.680;5.394;2023-04-15T00:58:41;100818.13;;;8.05;62.40
45523;BME280;31254;51.680;5.394;2023-04-15T01:01:08;100823.44;;;8.07;62.33
45523;BME280;31254;51.680;5.394;2023-04-15T01:03:35;100809.34;;;7.92;62.13
45523;BME280;31254;51.680;5.394;2023-04-15T01:06:02;100816.34;;;7.95;62.61
45523;BME280;31254;51.680;5.394;2023-04-15T01:08:30;100817.19;;;7.95;62.62
45523;BME280;31254;51.680;5.394;2023-04-15T01:11:00;100820.09;;;7.94;62.75
45523;BME280;31254;51.680;5.394;2023-04-15T01:13:29;100822.03;;;7.92;63.15
45523;BME280;31254;51.680;5.394;2023-04-15T01:15:56;100833.03;;;7.90;62.93
45523;BME280;31254;51.680;5.394;2023-04-15T01:18:23;100809.81;;;7.76;63.23
45523;BME280;31254;51.680;5.394;2023-04-15T01:20:50;100825.84;;;7.79;63.19
45523;BME280;31254;51.680;5.394;2023-04-15T01:23:17;100805.44;;;7.64;63.40
45523;BME280;31254;51.680;5.394;2023-04-15T01:25:51;100827.34;;;7.72;63.62
45523;BME280;31254;51.680;5.394;2023-04-15T01:28:19;100820.75;;;7.65;63.52
45523;BME280;31254;51.680;5.394;2023-04-15T01:30:48;100832.59;;;7.64;63.88
45523;BME280;31254;51.680;5.394;2023-04-15T01:33:17;100808.47;;;7.49;63.52
45523;BME280;31254;51.680;5.394;2023-04-15T01:35:43;100828.41;;;7.60;63.71
45523;BME280;31254;51.680;5.394;2023-04-15T01:38:10;100810.44;;;7.47;63.84
45523;BME280;31254;51.680;5.394;2023-04-15T01:40:40;100828.06;;;7.53;64.03
45523;BME280;31254;51.680;5.394;2023-04-15T01:43:07;100830.19;;;7.49;63.93
45523;BME280;31254;51.680;5.394;2023-04-15T01:45:35;100831.56;;;7.44;64.10
45523;BME280;31254;51.680;5.394;2023-04-15T01:48:02;100818.13;;;7.42;64.11
45523;BME280;31254;51.680;5.394;2023-04-15T01:50:29;100818.91;;;7.33;64.24
45523;BME280;31254;51.680;5.394;2023-04-15T01:52:56;100806.09;;;7.24;64.51
45523;BME280;31254;51.680;5.394;2023-04-15T01:55:26;100813.25;;;7.25;64.70
45523;BME280;31254;51.680;5.394;2023-04-15T01:57:53;100793.97;;;7.07;64.54
45523;BME280;31254;51.680;5.394;2023-04-15T02:00:19;100821.78;;;7.20;64.72
45523;BME280;31254;51.680;5.394;2023-04-15T02:02:48;100833.50;;;7.21;64.98
45523;BME280;31254;51.680;5.394;2023-04-15T02:05:15;100835.34;;;7.20;65.15
45523;BME280;31254;51.680;5.394;2023-04-15T02:07:42;100692.63;;;6.32;65.16
45523;BME280;31254;51.680;5.394;2023-04-15T02:10:11;100817.78;;;7.03;65.63
45523;BME280;31254;51.680;5.394;2023-04-15T02:12:41;100840.56;;;7.12;65.73
45523;BME280;31254;51.680;5.394;2023-04-15T02:15:10;100835.88;;;7.03;65.45
45523;BME280;31254;51.680;5.394;2023-04-15T02:17:37;100834.19;;;7.02;65.62
45523;BME280;31254;51.680;5.394;2023-04-15T02:20:04;100835.41;;;6.98;65.94
45523;BME280;31254;51.680;5.394;2023-04-15T02:22:34;100839.38;;;6.93;65.83
45523;BME280;31254;51.680;5.394;2023-04-15T02:25:00;100834.72;;;6.84;66.01
45523;BME280;31254;51.680;5.394;2023-04-15T02:27:27;100840.25;;;6.83;65.99
45523;BME280;31254;51.680;5.394;2023-04-15T02:29:54;100846.16;;;6.88;66.28
45523;BME280;31254;51.680;5.394;2023-04-15T02:32:21;100838.91;;;6.77;66.25
45523;BME280;31254;51.680;5.394;2023-04-15T02:34:49;100838.16;;;6.75;66.23
45523;BME280;31254;51.680;5.394;2023-04-15T02:37:16;100852.44;;;6.77;66.46
45523;BME280;31254;51.680;5.394;2023-04-15T02:39:45;100844.72;;;6.72;66.87
45523;BME280;31254;51.680;5.394;2023-04-15T02:42:12;100844.34;;;6.66;66.45
45523;BME280;31254;51.680;5.394;2023-04-15T02:44:39;100833.13;;;6.59;67.26
45523;BME280;31254;51.680;5.394;2023-04-15T02:47:06;100863.19;;;6.67;67.27
45523;BME280;31254;51.680;5.394;2023-04-15T02:49:32;100862.56;;;6.64;67.08
45523;BME280;31254;51.680;5.394;2023-04-15T02:52:02;100864.31;;;6.65;67.53
45523;BME280;31254;51.680;5.394;2023-04-15T02:54:28;100860.88;;;6.63;67.24
45523;BME280;31254;51.680;5.394;2023-04-15T02:56:57;100867.50;;;6.58;67.32
45523;BME280;31254;51.680;5.394;2023-04-15T02:59:26;100867.50;;;6.58;67.77
45523;BME280;31254;51.680;5.394;2023-04-15T03:01:53;100848.91;;;6.43;67.85
45523;BME280;31254;51.680;5.394;2023-04-15T03:04:28;100867.88;;;6.54;67.61
45523;BME280;31254;51.680;5.394;2023-04-15T03:06:56;100851.38;;;6.46;67.68
45523;BME280;31254;51.680;5.394;2023-04-15T03:09:23;100867.16;;;6.52;67.94
45523;BME280;31254;51.680;5.394;2023-04-15T03:11:54;100664.28;;;5.34;68.13
45523;BME280;31254;51.680;5.394;2023-04-15T03:14:22;100838.06;;;6.31;68.40
45523;BME280;31254;51.680;5.394;2023-04-15T03:16:53;100850.03;;;6.40;68.36
45523;BME280;31254;51.680;5.394;2023-04-15T03:19:20;100856.78;;;6.34;68.33
45523;BME280;31254;51.680;5.394;2023-04-15T03:21:47;100833.88;;;6.16;68.47
45523;BME280;31254;51.680;5.394;2023-04-15T03:24:17;100850.28;;;6.26;68.59
45523;BME280;31254;51.680;5.394;2023-04-15T03:26:44;100832.75;;;6.07;69.04
45523;BME280;31254;51.680;5.394;2023-04-15T03:29:10;100876.25;;;6.28;69.15
45523;BME280;31254;51.680;5.394;2023-04-15T03:31:40;100872.69;;;6.28;69.39
45523;BME280;31254;51.680;5.394;2023-04-15T03:34:07;100887.06;;;6.28;69.66
45523;BME280;31254;51.680;5.394;2023-04-15T03:36:33;100883.75;;;6.25;69.53
45523;BME280;31254;51.680;5.394;2023-04-15T03:39:02;100887.44;;;6.23;69.50
45523;BME280;31254;51.680;5.394;2023-04-15T03:41:29;100888.44;;;6.22;69.52
45523;BME280;31254;51.680;5.394;2023-04-15T03:43:56;100880.28;;;6.11;69.33
45523;BME280;31254;51.680;5.394;2023-04-15T03:46:23;100886.44;;;6.13;69.65
45523;BME280;31254;51.680;5.394;2023-04-15T03:48:50;100900.72;;;6.15;69.50
45523;BME280;31254;51.680;5.394;2023-04-15T03:51:16;100903.53;;;6.14;69.64
45523;BME280;31254;51.680;5.394;2023-04-15T03:53:43;100907.25;;;6.13;69.61
45523;BME280;31254;51.680;5.394;2023-04-15T03:56:10;100886.97;;;5.94;70.25
45523;BME280;31254;51.680;5.394;2023-04-15T03:58:37;100915.75;;;6.08;70.23
45523;BME280;31254;51.680;5.394;2023-04-15T04:01:03;100924.84;;;6.07;70.23
45523;BME280;31254;51.680;5.394;2023-04-15T04:03:30;100914.94;;;5.95;69.95
45523;BME280;31254;51.680;5.394;2023-04-15T04:05:58;100907.78;;;5.94;70.44
45523;BME280;31254;51.680;5.394;2023-04-15T04:08:24;100916.31;;;6.00;70.10
45523;BME280;31254;51.680;5.394;2023-04-15T04:10:53;100937.03;;;6.01;70.48
45523;BME280;31254;51.680;5.394;2023-04-15T04:13:20;100937.03;;;6.01;70.17
45523;BME280;31254;51.680;5.394;2023-04-15T04:15:46;100927.97;;;5.90;70.46
45523;BME280;31254;51.680;5.394;2023-04-15T04:18:13;100944.66;;;5.96;70.72
45523;BME280;31254;51.680;5.394;2023-04-15T04:20:40;100933.63;;;5.86;70.86
45523;BME280;31254;51.680;5.394;2023-04-15T04:23:07;100935.28;;;5.76;71.47
45523;BME280;31254;51.680;5.394;2023-04-15T04:25:36;100926.25;;;5.64;71.61
45523;BME280;31254;51.680;5.394;2023-04-15T04:28:03;100957.94;;;5.75;71.70
45523;BME280;31254;51.680;5.394;2023-04-15T04:30:30;100966.53;;;5.69;71.78
45523;BME280;31254;51.680;5.394;2023-04-15T04:32:57;100964.91;;;5.66;71.90
45523;BME280;31254;51.680;5.394;2023-04-15T04:35:26;100976.34;;;5.70;72.38
45523;BME280;31254;51.680;5.394;2023-04-15T04:37:53;100975.84;;;5.65;72.08
45523;BME280;31254;51.680;5.394;2023-04-15T04:40:22;100952.41;;;5.53;72.15
45523;BME280;31254;51.680;5.394;2023-04-15T04:42:49;100983.00;;;5.66;72.15
45523;BME280;31254;51.680;5.394;2023-04-15T04:45:19;100985.19;;;5.61;72.64
45523;BME280;31254;51.680;5.394;2023-04-15T04:47:45;100992.41;;;5.60;72.98
45523;BME280;31254;51.680;5.394;2023-04-15T04:50:15;100989.06;;;5.57;72.78
45523;BME280;31254;51.680;5.394;2023-04-15T04:52:42;100987.25;;;5.57;72.77
45523;BME280;31254;51.680;5.394;2023-04-15T04:55:12;100999.34;;;5.64;72.93
45523;BME280;31254;51.680;5.394;2023-04-15T04:57:38;100996.75;;;5.63;72.99
45523;BME280;31254;51.680;5.394;2023-04-15T05:00:13;101003.78;;;5.65;72.72
45523;BME280;31254;51.680;5.394;2023-04-15T05:02:42;101007.25;;;5.67;72.75
45523;BME280;31254;51.680;5.394;2023-04-15T05:05:12;100990.59;;;5.61;72.75
45523;BME280;31254;51.680;5.394;2023-04-15T05:07:41;101001.47;;;5.72;73.00
45523;BME280;31254;51.680;5.394;2023-04-15T05:10:11;101021.34;;;5.84;72.41
45523;BME280;31254;51.680;5.394;2023-04-15T05:12:38;101015.91;;;5.97;71.95
45523;BME280;31254;51.680;5.394;2023-04-15T05:15:06;101010.03;;;6.03;72.19
45523;BME280;31254;51.680;5.394;2023-04-15T05:17:33;101021.00;;;6.37;71.32
45523;BME280;31254;51.680;5.394;2023-04-15T05:20:03;101022.09;;;7.04;69.77
45523;BME280;31254;51.680;5.394;2023-04-15T05:22:30;101023.25;;;7.67;68.00
45523;BME280;31254;51.680;5.394;2023-04-15T05:24:57;101031.22;;;7.92;67.39
45523;BME280;31254;51.680;5.394;2023-04-15T05:27:26;101031.53;;;8.10;66.69
45523;BME280;31254;51.680;5.394;2023-04-15T05:29:55;101015.59;;;8.16;66.35
45523;BME280;31254;51.680;5.394;2023-04-15T05:32:22;101039.72;;;7.98;67.19
45523;BME280;31254;51.680;5.394;2023-04-15T05:34:49;101044.13;;;7.56;68.84
45523;BME280;31254;51.680;5.394;2023-04-15T05:37:16;101055.50;;;7.27;69.87
45523;BME280;31254;51.680;5.394;2023-04-15T05:39:46;101058.84;;;7.08;70.27
45523;BME280;31254;51.680;5.394;2023-04-15T05:42:13;101067.72;;;6.99;70.90
45523;BME280;31254;51.680;5.394;2023-04-15T05:44:41;101056.13;;;6.85;70.90
45523;BME280;31254;51.680;5.394;2023-04-15T05:47:08;101065.22;;;6.84;70.79
45523;BME280;31254;51.680;5.394;2023-04-15T05:49:36;101069.41;;;6.88;71.03
45523;BME280;31254;51.680;5.394;2023-04-15T05:52:05;101076.22;;;6.94;71.18
45523;BME280;31254;51.680;5.394;2023-04-15T05:54:32;101060.53;;;6.98;70.45
45523;BME280;31254;51.680;5.394;2023-04-15T05:57:00;101076.72;;;7.10;70.25
45523;BME280;31254;51.680;5.394;2023-04-15T05:59:27;101091.03;;;7.35;69.75
45523;BME280;31254;51.680;5.394;2023-04-15T06:01:54;101080.03;;;7.59;69.34
45523;BME280;31254;51.680;5.394;2023-04-15T06:04:23;101067.19;;;7.84;68.53
45523;BME280;31254;51.680;5.394;2023-04-15T06:06:50;101070.19;;;8.13;67.12
45523;BME280;31254;51.680;5.394;2023-04-15T06:09:20;101090.38;;;8.64;67.04
45523;BME280;31254;51.680;5.394;2023-04-15T06:11:48;101096.91;;;9.25;65.44
45523;BME280;31254;51.680;5.394;2023-04-15T06:14:15;101101.44;;;9.76;63.84
45523;BME280;31254;51.680;5.394;2023-04-15T06:16:42;101056.69;;;10.39;61.42
45523;BME280;31254;51.680;5.394;2023-04-15T06:19:09;101106.63;;;11.45;59.33
45523;BME280;31254;51.680;5.394;2023-04-15T06:21:36;101103.81;;;12.38;57.62
45523;BME280;31254;51.680;5.394;2023-04-15T06:24:03;101106.28;;;13.48;54.40
45523;BME280;31254;51.680;5.394;2023-04-15T06:26:33;101096.81;;;14.36;52.95
45523;BME280;31254;51.680;5.394;2023-04-15T06:29:02;101085.38;;;14.90;51.33
45523;BME280;31254;51.680;5.394;2023-04-15T06:31:31;101096.88;;;14.85;51.36
45523;BME280;31254;51.680;5.394;2023-04-15T06:33:58;101126.22;;;15.01;51.55
45523;BME280;31254;51.680;5.394;2023-04-15T06:36:25;101104.56;;;15.31;50.72
45523;BME280;31254;51.680;5.394;2023-04-15T06:38:53;101127.66;;;15.61;50.25
45523;BME280;31254;51.680;5.394;2023-04-15T06:41:20;101131.16;;;16.03;49.26
45523;BME280;31254;51.680;5.394;2023-04-15T06:43:49;101102.31;;;15.99;48.94
45523;BME280;31254;51.680;5.394;2023-04-15T06:46:18;101136.28;;;16.14;48.76
45523;BME280;31254;51.680;5.394;2023-04-15T06:48:45;101133.78;;;16.27;48.41
45523;BME280;31254;51.680;5.394;2023-04-15T06:51:13;101129.44;;;16.64;47.70
45523;BME280;31254;51.680;5.394;2023-04-15T06:53:39;101138.78;;;17.25;46.86
45523;BME280;31254;51.680;5.394;2023-04-15T06:56:10;101163.50;;;16.95;47.12
45523;BME280;31254;51.680;5.394;2023-04-15T06:58:37;101161.72;;;17.02;47.12
45523;BME280;31254;51.680;5.394;2023-04-15T07:01:06;101158.66;;;16.97;47.28
45523;BME280;31254;51.680;5.394;2023-04-15T07:03:33;101170.25;;;16.84;47.37
45523;BME280;31254;51.680;5.394;2023-04-15T07:06:00;101173.66;;;17.17;46.94
45523;BME280;31254;51.680;5.394;2023-04-15T07:08:32;101161.41;;;17.88;45.38
45523;BME280;31254;51.680;5.394;2023-04-15T07:10:59;101155.78;;;17.66;45.46
45523;BME280;31254;51.680;5.394;2023-04-15T07:13:32;101162.44;;;18.17;44.96
45523;BME280;31254;51.680;5.394;2023-04-15T07:15:59;101183.31;;;18.19;44.92
45523;BME280;31254;51.680;5.394;2023-04-15T07:18:28;101188.88;;;17.81;45.38
45523;BME280;31254;51.680;5.394;2023-04-15T07:20:55;101166.25;;;18.01;44.86
45523;BME280;31254;51.680;5.394;2023-04-15T07:23:25;101191.25;;;17.54;46.01
45523;BME280;31254;51.680;5.394;2023-04-15T07:25:51;101185.97;;;17.98;45.16
45523;BME280;31254;51.680;5.394;2023-04-15T07:28:21;101193.28;;;18.20;44.67
45523;BME280;31254;51.680;5.394;2023-04-15T07:30:48;101177.59;;;18.21;44.38
45523;BME280;31254;51.680;5.394;2023-04-15T07:33:18;101207.13;;;18.93;43.55
45523;BME280;31254;51.680;5.394;2023-04-15T07:35:44;101185.72;;;18.95;43.30
45523;BME280;31254;51.680;5.394;2023-04-15T07:38:12;101205.63;;;19.12;42.89
45523;BME280;31254;51.680;5.394;2023-04-15T07:40:39;101210.78;;;18.42;44.11
45523;BME280;31254;51.680;5.394;2023-04-15T07:43:06;101224.53;;;18.72;43.67
45523;BME280;31254;51.680;5.394;2023-04-15T07:45:34;101210.44;;;18.31;44.02
45523;BME280;31254;51.680;5.394;2023-04-15T07:48:01;101220.91;;;17.90;45.33
45523;BME280;31254;51.680;5.394;2023-04-15T07:50:28;101231.88;;;17.61;45.87
45523;BME280;31254;51.680;5.394;2023-04-15T07:52:55;101235.50;;;17.76;45.70
45523;BME280;31254;51.680;5.394;2023-04-15T07:55:22;101235.19;;;17.56;46.05
45523;BME280;31254;51.680;5.394;2023-04-15T07:57:50;101218.53;;;17.49;46.04
45523;BME280;31254;51.680;5.394;2023-04-15T08:00:17;101248.94;;;16.95;47.41
45523;BME280;31254;51.680;5.394;2023-04-15T08:02:46;101239.16;;;17.53;45.98
45523;BME280;31254;51.680;5.394;2023-04-15T08:05:14;101078.13;;;16.40;46.33
45523;BME280;31254;51.680;5.394;2023-04-15T08:07:41;101253.19;;;17.67;45.61
45523;BME280;31254;51.680;5.394;2023-04-15T08:10:08;101265.91;;;17.53;45.46
45523;BME280;31254;51.680;5.394;2023-04-15T08:12:38;101250.53;;;17.35;45.50
45523;BME280;31254;51.680;5.394;2023-04-15T08:15:07;101244.78;;;17.60;44.74
45523;BME280;31254;51.680;5.394;2023-04-15T08:17:34;101228.31;;;17.52;44.30
45523;BME280;31254;51.680;5.394;2023-04-15T08:20:04;101272.00;;;18.46;42.93
45523;BME280;31254;51.680;5.394;2023-04-15T08:22:31;101266.41;;;19.06;41.81
45523;BME280;31254;51.680;5.394;2023-04-15T08:24:58;101268.44;;;18.82;42.29
45523;BME280;31254;51.680;5.394;2023-04-15T08:27:25;101116.66;;;18.07;42.16
45523;BME280;31254;51.680;5.394;2023-04-15T08:29:51;101260.41;;;19.24;41.64
45523;BME280;31254;51.680;5.394;2023-04-15T08:32:21;101255.09;;;19.44;41.45
45523;BME280;31254;51.680;5.394;2023-04-15T08:34:48;101284.44;;;19.88;40.44
45523;BME280;31254;51.680;5.394;2023-04-15T08:37:15;101266.06;;;19.80;40.53
45523;BME280;31254;51.680;5.394;2023-04-15T08:39:42;101267.28;;;20.34;39.96
45523;BME280;31254;51.680;5.394;2023-04-15T08:42:16;101306.16;;;20.48;39.58
45523;BME280;31254;51.680;5.394;2023-04-15T08:44:45;101285.50;;;19.87;39.73
45523;BME280;31254;51.680;5.394;2023-04-15T08:47:13;101313.50;;;19.34;40.51
45523;BME280;31254;51.680;5.394;2023-04-15T08:49:43;101294.88;;;19.21;40.59
45523;BME280;31254;51.680;5.394;2023-04-15T08:52:09;101309.16;;;19.89;39.72
45523;BME280;31254;51.680;5.394;2023-04-15T08:54:37;101309.06;;;18.67;40.86
45523;BME280;31254;51.680;5.394;2023-04-15T08:57:05;101324.72;;;19.11;40.24
45523;BME280;31254;51.680;5.394;2023-04-15T08:59:32;101318.81;;;17.95;41.99
45523;BME280;31254;51.680;5.394;2023-04-15T09:02:06;101329.66;;;18.34;41.31
45523;BME280;31254;51.680;5.394;2023-04-15T09:04:34;101350.47;;;18.07;42.32
45523;BME280;31254;51.680;5.394;2023-04-15T09:07:00;101333.16;;;18.13;42.42
45523;BME280;31254;51.680;5.394;2023-04-15T09:09:27;101355.81;;;17.85;42.86
45523;BME280;31254;51.680;5.394;2023-04-15T09:11:57;101334.63;;;16.69;44.32
45523;BME280;31254;51.680;5.394;2023-04-15T09:14:24;101341.50;;;17.12;44.00
45523;BME280;31254;51.680;5.394;2023-04-15T09:17:03;101377.63;;;16.86;44.61
45523;BME280;31254;51.680;5.394;2023-04-15T09:19:33;101385.13;;;16.44;45.41
45523;BME280;31254;51.680;5.394;2023-04-15T09:22:03;101377.13;;;16.10;46.21
45523;BME280;31254;51.680;5.394;2023-04-15T09:24:51;101378.13;;;15.68;46.41
45523;BME280;31254;51.680;5.394;2023-04-15T09:27:30;101389.97;;;15.60;46.75
45523;BME280;31254;51.680;5.394;2023-04-15T09:30:09;101401.28;;;15.57;46.94
45523;BME280;31254;51.680;5.394;2023-04-15T09:32:51;101399.41;;;15.58;47.62
45523;BME280;31254;51.680;5.394;2023-04-15T09:35:21;101405.06;;;15.56;47.85
45523;BME280;31254;51.680;5.394;2023-04-15T09:38:09;101394.41;;;15.53;47.87
45523;BME280;31254;51.680;5.394;2023-04-15T09:40:38;101406.00;;;15.14;48.89
45523;BME280;31254;51.680;5.394;2023-04-15T09:43:09;101405.91;;;14.89;49.14
45523;BME280;31254;51.680;5.394;2023-04-15T09:45:48;101411.72;;;14.86;49.54
45523;BME280;31254;51.680;5.394;2023-04-15T09:48:20;101413.47;;;14.95;49.58
45523;BME280;31254;51.680;5.394;2023-04-15T09:50:52;101415.19;;;14.96;49.60
45523;BME280;31254;51.680;5.394;2023-04-15T09:53:21;101409.84;;;14.95;49.77
45523;BME280;31254;51.680;5.394;2023-04-15T09:55:55;101426.22;;;15.05;49.89
45523;BME280;31254;51.680;5.394;2023-04-15T09:58:28;101422.09;;;15.01;49.80
45523;BME280;31254;51.680;5.394;2023-04-15T10:00:56;101416.34;;;14.86;49.88
45523;BME280;31254;51.680;5.394;2023-04-15T10:03:34;101426.69;;;14.92;49.87
45523;BME280;31254;51.680;5.394;2023-04-15T10:06:02;101424.84;;;15.01;49.83
45523;BME280;31254;51.680;5.394;2023-04-15T10:08:31;101415.34;;;14.95;50.12
45523;BME280;31254;51.680;5.394;2023-04-15T10:11:02;101423.06;;;14.91;50.23
45523;BME280;31254;51.680;5.394;2023-04-15T10:13:31;101432.47;;;14.80;50.63
45523;BME280;31254;51.680;5.394;2023-04-15T10:16:10;101422.81;;;14.76;51.29
45523;BME280;31254;51.680;5.394;2023-04-15T10:18:41;101435.03;;;14.56;51.02
45523;BME280;31254;51.680;5.394;2023-04-15T10:21:08;101434.88;;;14.57;50.51
45523;BME280;31254;51.680;5.394;2023-04-15T10:23:39;101438.25;;;14.69;49.85
45523;BME280;31254;51.680;5.394;2023-04-15T10:26:06;101439.06;;;14.61;51.09
45523;BME280;31254;51.680;5.394;2023-04-15T10:28:33;101425.00;;;14.65;50.50
45523;BME280;31254;51.680;5.394;2023-04-15T10:31:00;101424.75;;;14.84;50.81
45523;BME280;31254;51.680;5.394;2023-04-15T10:33:27;101418.38;;;14.84;49.71
45523;BME280;31254;51.680;5.394;2023-04-15T10:36:00;101441.81;;;14.96;50.06
45523;BME280;31254;51.680;5.394;2023-04-15T10:38:34;101441.44;;;14.91;49.77
45523;BME280;31254;51.680;5.394;2023-04-15T10:41:18;101437.16;;;14.96;50.60
45523;BME280;31254;51.680;5.394;2023-04-15T10:43:52;101418.63;;;14.90;50.01
45523;BME280;31254;51.680;5.394;2023-04-15T10:46:43;101445.50;;;15.13;49.89
45523;BME280;31254;51.680;5.394;2023-04-15T10:49:15;101433.28;;;15.07;49.71
45523;BME280;31254;51.680;5.394;2023-04-15T10:51:45;101455.53;;;14.96;49.55
45523;BME280;31254;51.680;5.394;2023-04-15T10:56:43;101444.97;;;15.17;49.56
45523;BME280;31254;51.680;5.394;2023-04-15T10:59:10;101440.72;;;15.23;49.63
45523;BME280;31254;51.680;5.394;2023-04-15T11:01:54;101460.13;;;15.22;49.65
45523;BME280;31254;51.680;5.394;2023-04-15T11:10:05;101453.25;;;14.83;50.41
45523;BME280;31254;51.680;5.394;2023-04-15T11:12:56;101464.97;;;14.93;50.45
45523;BME280;31254;51.680;5.394;2023-04-15T11:15:46;101344.34;;;14.13;50.48
45523;BME280;31254;51.680;5.394;2023-04-15T11:18:24;101463.38;;;14.83;51.18
45523;BME280;31254;51.680;5.394;2023-04-15T11:20:52;101465.47;;;14.89;51.16
45523;BME280;31254;51.680;5.394;2023-04-15T11:23:29;101467.72;;;14.93;51.19
45523;BME280;31254;51.680;5.394;2023-04-15T11:25:58;101466.91;;;15.01;51.16
45523;BME280;31254;51.680;5.394;2023-04-15T11:28:27;101459.94;;;15.15;50.89
45523;BME280;31254;51.680;5.394;2023-04-15T11:31:16;101437.97;;;14.80;50.65
45523;BME280;31254;51.680;5.394;2023-04-15T11:36:21;101465.91;;;14.76;50.09
45523;BME280;31254;51.680;5.394;2023-04-15T11:38:49;101472.38;;;15.01;49.97
45523;BME280;31254;51.680;5.394;2023-04-15T11:41:20;101448.44;;;14.85;50.16
45523;BME280;31254;51.680;5.394;2023-04-15T11:43:49;101479.88;;;15.25;50.08
45523;BME280;31254;51.680;5.394;2023-04-15T11:46:17;101481.25;;;15.21;50.39
45523;BME280;31254;51.680;5.394;2023-04-15T11:48:45;101472.75;;;15.41;50.65
45523;BME280;31254;51.680;5.394;2023-04-15T11:51:15;101499.19;;;15.42;49.61
45523;BME280;31254;51.680;5.394;2023-04-15T11:53:42;101499.78;;;15.19;50.21
45523;BME280;31254;51.680;5.394;2023-04-15T11:56:19;101461.47;;;15.17;49.94
45523;BME280;31254;51.680;5.394;2023-04-15T11:58:47;101489.69;;;15.28;50.34
45523;BME280;31254;51.680;5.394;2023-04-15T12:01:16;101475.75;;;15.21;50.41
45523;BME280;31254;51.680;5.394;2023-04-15T12:03:47;101502.50;;;15.11;51.20
45523;BME280;31254;51.680;5.394;2023-04-15T12:06:24;101507.22;;;14.92;51.33
45523;BME280;31254;51.680;5.394;2023-04-15T12:16:49;101508.06;;;14.93;51.34
45523;BME280;31254;51.680;5.394;2023-04-15T12:19:23;101505.47;;;14.91;51.05
45523;BME280;31254;51.680;5.394;2023-04-15T12:22:00;101528.06;;;15.03;50.84
45523;BME280;31254;51.680;5.394;2023-04-15T12:24:30;101509.31;;;14.98;50.19
45523;BME280;31254;51.680;5.394;2023-04-15T12:27:08;101527.81;;;14.96;50.68
45523;BME280;31254;51.680;5.394;2023-04-15T12:29:44;101506.09;;;15.03;50.26
45523;BME280;31254;51.680;5.394;2023-04-15T12:32:15;101538.00;;;15.04;50.51
45523;BME280;31254;51.680;5.394;2023-04-15T12:34:53;101543.72;;;15.11;50.28
45523;BME280;31254;51.680;5.394;2023-04-15T12:37:23;101526.53;;;15.09;49.42
45523;BME280;31254;51.680;5.394;2023-04-15T12:39:51;101488.91;;;15.09;49.77
45523;BME280;31254;51.680;5.394;2023-04-15T12:42:19;101547.22;;;15.21;49.78
45523;BME280;31254;51.680;5.394;2023-04-15T12:44:46;101540.09;;;15.10;49.79
45523;BME280;31254;51.680;5.394;2023-04-15T12:47:12;101557.44;;;15.11;49.57
45523;BME280;31254;51.680;5.394;2023-04-15T12:49:44;101547.72;;;15.16;49.21
45523;BME280;31254;51.680;5.394;2023-04-15T12:52:11;101555.94;;;15.16;49.49
45523;BME280;31254;51.680;5.394;2023-04-15T12:54:38;101543.09;;;15.25;49.42
45523;BME280;31254;51.680;5.394;2023-04-15T12:57:05;101559.63;;;15.33;49.25
45523;BME280;31254;51.680;5.394;2023-04-15T12:59:34;101508.75;;;15.21;49.38
45523;BME280;31254;51.680;5.394;2023-04-15T13:02:00;101564.69;;;15.46;49.18
45523;BME280;31254;51.680;5.394;2023-04-15T13:04:28;101535.13;;;15.14;49.46
45523;BME280;31254;51.680;5.394;2023-04-15T13:07:01;101545.75;;;15.09;49.36
45523;BME280;31254;51.680;5.394;2023-04-15T13:09:28;101578.47;;;15.20;49.46
45523;BME280;31254;51.680;5.394;2023-04-15T13:11:54;101570.06;;;15.22;49.76
45523;BME280;31254;51.680;5.394;2023-04-15T13:14:25;101553.31;;;15.07;49.91
45523;BME280;31254;51.680;5.394;2023-04-15T13:16:52;101572.69;;;15.31;49.95
45523;BME280;31254;51.680;5.394;2023-04-15T13:19:19;101604.22;;;15.19;50.41
45523;BME280;31254;51.680;5.394;2023-04-15T13:21:45;101593.13;;;15.03;50.90
45523;BME280;31254;51.680;5.394;2023-04-15T13:24:12;101580.88;;;15.23;50.67